Main page
METAR-TAF:

Airports :

Leeds Bradford, England

Leeds Bradford International Airport

latitude: 53-52N, longitude: 001-39W, elevation: 208 m

Current weather observation

The report was made 24 minutes ago, at 06:50 UTC
Wind 5 kt from the Southwest, varying between South/Southwest and West
Temperature 14°C
Humidity 88%
Pressure 1023 hPa
Visibility 10 km or more
Few clouds at a height of 700 ft
Broken clouds at a height of 1000 ft

METAR: EGNM 300650Z 23005KT 200V270 9999 FEW007 BKN010 14/12 Q1023

Time: 08:14 (07:14 UTC)

Forecast

The report was made 2 hours and 19 minutes ago, at 04:55 UTC
Forecast valid from 30 at 06 UTC to 31 at 06 UTC
Wind 8 kt from the Southwest
Visibility 10 km or more
Scattered clouds at a height of 2500 ft
Temporary
from 30 at 06 UTC to 30 at 09 UTC
Broken clouds at a height of 800 ft

TAF: EGNM 300455Z 3006/3106 23008KT 9999 SCT025 TEMPO 3006/3009 BKN008

METAR-TAF

Weather observations and forecasts of more than 4000 airports (METAR and TAF reports).

The available stations are represented by yellow and red dots on the map.

Hover mouse over dot to see the name of the station.

Then click to see weather observations and forecasts.

To change the map : click on the green buttons with a black cross to zoom in, on the green button with a dash to zoom out, or on the green arrows for adjacent maps.


METAR-TAF: